createdAt,value
2023-04-25T00:01:39.353Z,1.63
2023-04-25T00:04:43.819Z,1.23
2023-04-25T00:07:51.586Z,1.67
2023-04-25T00:10:55.495Z,1.55
2023-04-25T00:14:00.752Z,1.70
2023-04-25T00:17:07.039Z,1.50
2023-04-25T00:20:11.546Z,1.20
2023-04-25T00:23:18.906Z,1.40
2023-04-25T00:26:23.460Z,1.10
2023-04-25T00:29:27.327Z,1.60
2023-04-25T00:32:30.976Z,1.35
2023-04-25T00:35:35.894Z,1.40
2023-04-25T00:38:41.853Z,1.20
2023-04-25T00:41:46.248Z,1.00
2023-04-25T00:44:50.421Z,1.02
2023-04-25T00:47:54.525Z,1.60
2023-04-25T00:50:59.567Z,1.38
2023-04-25T00:54:05.405Z,1.42
2023-04-25T00:57:09.560Z,1.35
2023-04-25T01:00:14.339Z,1.17
2023-04-25T01:03:18.460Z,1.20
2023-04-25T01:06:23.544Z,1.30
2023-04-25T01:09:28.907Z,1.48
2023-04-25T01:12:32.983Z,1.58
2023-04-25T01:15:37.949Z,1.80
2023-04-25T01:18:43.900Z,1.38
2023-04-25T01:21:50.497Z,1.45
2023-04-25T01:24:55.137Z,1.98
2023-04-25T01:28:00.112Z,1.77
2023-04-25T01:31:04.527Z,1.77
2023-04-25T01:34:09.132Z,1.15
2023-04-25T01:37:14.264Z,1.38
2023-04-25T01:40:19.526Z,1.90
2023-04-25T01:43:24.881Z,1.63
2023-04-25T01:46:28.881Z,1.67
2023-04-25T01:49:36.775Z,2.05
2023-04-25T01:52:41.918Z,2.28
2023-04-25T01:55:47.361Z,1.98
2023-04-25T01:58:53.903Z,1.88
2023-04-25T02:01:57.504Z,1.98
2023-04-25T02:05:11.356Z,1.85
2023-04-25T02:08:19.894Z,2.33
2023-04-25T02:11:23.827Z,2.05
2023-04-25T02:14:38.581Z,2.10
2023-04-25T02:18:08.397Z,2.13
2023-04-25T02:21:12.412Z,1.80
2023-04-25T02:24:18.009Z,2.00
2023-04-25T02:27:21.568Z,2.13
2023-04-25T02:30:25.297Z,2.22
2023-04-25T02:33:31.277Z,2.13
2023-04-25T02:36:36.419Z,2.33
2023-04-25T02:39:41.358Z,2.42
2023-04-25T02:42:46.559Z,2.42
2023-04-25T02:45:51.312Z,2.00
2023-04-25T02:48:57.380Z,2.13
2023-04-25T02:52:01.053Z,1.88
2023-04-25T02:55:06.313Z,2.58
2023-04-25T03:01:20.063Z,2.45
2023-04-25T03:04:24.891Z,2.35
2023-04-25T03:07:29.659Z,2.03
2023-04-25T03:10:33.326Z,2.10
2023-04-25T03:13:42.708Z,1.50
2023-04-25T03:16:49.295Z,1.67
2023-04-25T03:19:56.674Z,2.65
2023-04-25T03:23:00.325Z,2.25
2023-04-25T03:26:05.568Z,1.92
2023-04-25T03:29:09.438Z,1.75
2023-04-25T03:32:16.086Z,1.77
2023-04-25T03:35:22.165Z,1.92
2023-04-25T03:38:28.711Z,1.85
2023-04-25T03:41:33.002Z,1.70
2023-04-25T03:44:44.262Z,2.03
2023-04-25T03:47:50.785Z,1.50
2023-04-25T03:50:58.001Z,1.92
2023-04-25T03:54:02.039Z,2.05
2023-04-25T03:57:09.022Z,1.77
2023-04-25T04:00:16.401Z,1.70
2023-04-25T04:03:22.039Z,1.98
2023-04-25T04:06:26.494Z,2.25
2023-04-25T04:09:37.348Z,1.98
2023-04-25T04:12:45.537Z,1.88
2023-04-25T04:15:50.648Z,2.22
2023-04-25T04:18:55.708Z,1.45
2023-04-25T04:22:00.496Z,1.67
2023-04-25T04:25:06.731Z,2.00
2023-04-25T04:28:40.062Z,2.42
2023-04-25T04:31:56.331Z,1.90
2023-04-25T04:35:04.850Z,1.75
2023-04-25T04:38:08.780Z,1.42
2023-04-25T04:41:13.846Z,2.15
2023-04-25T04:44:45.566Z,1.60
2023-04-25T04:48:19.492Z,1.88
2023-04-25T04:51:59.527Z,1.90
2023-04-25T04:55:21.982Z,1.55
2023-04-25T04:58:45.785Z,1.60
2023-04-25T05:02:09.759Z,1.63
2023-04-25T05:05:32.113Z,1.35
2023-04-25T05:08:51.781Z,2.20
2023-04-25T05:12:17.995Z,1.33
2023-04-25T05:15:34.418Z,1.52
2023-04-25T05:18:57.200Z,1.88
2023-04-25T05:22:07.828Z,1.85
2023-04-25T05:25:19.096Z,2.17
2023-04-25T05:28:37.109Z,2.00
2023-04-25T05:31:48.596Z,2.00
2023-04-25T05:34:53.686Z,1.80
2023-04-25T05:38:03.900Z,2.55
2023-04-25T05:41:27.656Z,1.65
2023-04-25T05:44:35.886Z,2.28
2023-04-25T05:47:59.863Z,2.13
2023-04-25T05:51:21.818Z,1.70
2023-04-25T05:54:43.158Z,1.67
2023-04-25T05:57:50.122Z,1.98
2023-04-25T06:00:55.530Z,1.60
2023-04-25T06:03:59.664Z,2.25
2023-04-25T06:07:03.632Z,1.80
2023-04-25T06:10:08.921Z,1.35
2023-04-25T06:13:14.130Z,1.40
2023-04-25T06:16:18.052Z,1.58
2023-04-25T06:19:21.920Z,1.63
2023-04-25T06:22:25.444Z,1.38
2023-04-25T06:25:29.089Z,1.80
2023-04-25T06:28:36.271Z,1.45
2023-04-25T06:31:40.410Z,1.65
2023-04-25T06:34:44.957Z,1.67
2023-04-25T06:37:49.009Z,1.88
2023-04-25T06:40:56.337Z,2.00
2023-04-25T06:44:03.532Z,2.25
2023-04-25T06:47:11.185Z,1.73
2023-04-25T06:50:17.881Z,1.65
2023-04-25T06:53:25.129Z,1.60
2023-04-25T06:56:36.957Z,1.70
2023-04-25T06:59:54.041Z,1.83
2023-04-25T07:03:07.104Z,2.03
2023-04-25T07:06:17.125Z,1.63
2023-04-25T07:09:23.858Z,1.83
2023-04-25T07:12:30.786Z,1.55
2023-04-25T07:15:37.634Z,1.65
2023-04-25T07:18:41.652Z,1.83
2023-04-25T07:21:48.493Z,1.80
2023-04-25T07:24:55.270Z,2.28
2023-04-25T07:28:06.465Z,1.75
2023-04-25T07:31:11.795Z,1.75
2023-04-25T07:34:15.860Z,2.15
2023-04-25T07:37:20.393Z,1.58
2023-04-25T07:40:37.908Z,2.13
2023-04-25T07:43:50.230Z,1.30
2023-04-25T07:46:56.359Z,1.33
2023-04-25T07:50:00.171Z,1.77
2023-04-25T07:53:05.297Z,1.50
2023-04-25T07:56:19.514Z,1.65
2023-04-25T07:59:29.780Z,2.13
2023-04-25T08:02:38.892Z,1.50
2023-04-25T08:05:47.797Z,1.23
2023-04-25T08:08:52.666Z,1.40
2023-04-25T08:11:59.485Z,0.75
2023-04-25T08:15:09.330Z,1.25
2023-04-25T08:18:17.857Z,1.02
2023-04-25T08:21:23.834Z,1.38
2023-04-25T08:24:38.074Z,1.60
2023-04-25T08:27:48.680Z,1.08
2023-04-25T08:30:56.359Z,1.58
2023-04-25T08:34:04.520Z,1.05
2023-04-25T08:37:14.873Z,1.52
2023-04-25T08:40:31.325Z,1.75
2023-04-25T08:43:46.070Z,1.48
2023-04-25T08:46:59.906Z,1.08
2023-04-25T08:50:17.179Z,1.58
2023-04-25T08:53:28.453Z,1.48
2023-04-25T08:56:41.222Z,0.60
2023-04-25T08:59:51.887Z,0.70
2023-04-25T09:03:01.174Z,0.70
2023-04-25T09:06:10.704Z,1.05
2023-04-25T09:09:14.892Z,1.45
2023-04-25T09:12:19.034Z,1.10
2023-04-25T09:15:22.887Z,1.05
2023-04-25T09:18:48.355Z,0.50
2023-04-25T09:21:57.442Z,1.40
2023-04-25T09:25:05.185Z,1.20
2023-04-25T09:28:09.897Z,1.08
2023-04-25T09:31:14.663Z,1.70
2023-04-25T09:34:23.538Z,1.00
2023-04-25T09:37:33.643Z,1.30
2023-04-25T09:40:45.638Z,1.05
2023-04-25T09:44:17.590Z,0.93
2023-04-25T09:47:24.484Z,1.10
2023-04-25T09:50:34.682Z,1.23
2023-04-25T09:53:52.365Z,1.17
2023-04-25T09:57:12.178Z,1.40
2023-04-25T10:00:17.286Z,1.10
2023-04-25T10:03:23.946Z,0.95
2023-04-25T10:06:55.528Z,1.45
2023-04-25T10:10:03.137Z,1.17
2023-04-25T10:13:09.674Z,0.80
2023-04-25T10:16:13.654Z,1.10
2023-04-25T10:19:21.760Z,0.93
2023-04-25T10:22:29.236Z,0.77
2023-04-25T10:25:35.290Z,0.73
2023-04-25T10:28:53.933Z,0.60
2023-04-25T10:31:57.985Z,1.10
2023-04-25T10:35:12.866Z,0.90
2023-04-25T10:38:18.905Z,0.80
2023-04-25T10:41:27.498Z,1.00
2023-04-25T10:44:35.999Z,0.60
2023-04-25T10:47:50.776Z,1.00
2023-04-25T10:51:10.601Z,1.02
2023-04-25T10:54:15.243Z,1.30
2023-04-25T10:57:34.621Z,0.85
2023-04-25T11:00:48.246Z,0.88
2023-04-25T11:04:01.914Z,0.98
2023-04-25T11:07:15.143Z,0.85
2023-04-25T11:10:21.819Z,0.60
2023-04-25T11:13:32.972Z,0.65
2023-04-25T11:16:37.624Z,0.93
2023-04-25T11:19:42.414Z,0.88
2023-04-25T11:22:47.643Z,1.13
2023-04-25T11:25:53.818Z,0.80
2023-04-25T11:29:03.244Z,1.00
2023-04-25T11:32:08.624Z,0.63
2023-04-25T11:35:13.420Z,1.00
2023-04-25T11:38:22.579Z,0.98
2023-04-25T11:41:33.563Z,0.63
2023-04-25T11:44:40.884Z,0.70
2023-04-25T11:47:44.634Z,0.85
2023-04-25T11:50:48.596Z,0.60
2023-04-25T11:53:52.519Z,0.70
2023-04-25T11:56:57.809Z,0.88
2023-04-25T12:00:20.012Z,0.68
2023-04-25T12:03:28.557Z,1.25
2023-04-25T12:06:32.787Z,0.68
2023-04-25T12:09:43.613Z,0.75
2023-04-25T12:12:52.612Z,0.95
2023-04-25T12:15:59.707Z,1.05
2023-04-25T12:19:04.812Z,0.85
2023-04-25T12:22:23.556Z,0.90
2023-04-25T12:25:40.609Z,1.13
2023-04-25T12:28:51.708Z,0.70
2023-04-25T12:32:04.782Z,0.70
2023-04-25T12:35:14.854Z,0.75
2023-04-25T12:38:26.734Z,0.90
2023-04-25T12:41:35.236Z,0.50
2023-04-25T12:44:47.132Z,0.85
2023-04-25T12:47:53.930Z,1.00
2023-04-25T12:50:57.459Z,0.93
2023-04-25T12:54:07.841Z,1.20
2023-04-25T12:57:13.394Z,0.80
2023-04-25T13:00:19.426Z,0.60
2023-04-25T13:03:24.960Z,0.70
2023-04-25T13:06:34.413Z,0.70
2023-04-25T13:09:39.737Z,0.50
2023-04-25T13:12:43.536Z,0.40
2023-04-25T13:15:48.810Z,0.52
2023-04-25T13:18:57.453Z,0.75
2023-04-25T13:22:05.351Z,0.70
2023-04-25T13:25:10.733Z,0.65
2023-04-25T13:28:23.033Z,0.90
2023-04-25T13:31:30.923Z,0.98
2023-04-25T13:34:36.410Z,0.73
2023-04-25T13:37:44.198Z,0.40
2023-04-25T13:40:49.135Z,0.85
2023-04-25T13:43:53.328Z,0.75
2023-04-25T13:46:58.089Z,1.10
2023-04-25T13:50:04.459Z,0.88
2023-04-25T13:53:08.347Z,0.93
2023-04-25T13:56:13.499Z,0.73
2023-04-25T13:59:22.302Z,1.67
2023-04-25T14:02:26.902Z,0.98
2023-04-25T14:05:32.843Z,0.75
2023-04-25T14:08:37.184Z,0.65
2023-04-25T14:11:40.960Z,1.02
2023-04-25T14:14:50.856Z,0.80
2023-04-25T14:17:56.029Z,1.27
2023-04-25T14:21:02.739Z,0.75
2023-04-25T14:24:07.782Z,1.50
2023-04-25T14:27:12.639Z,0.80
2023-04-25T14:30:16.507Z,0.57
2023-04-25T14:33:20.502Z,0.52
2023-04-25T14:36:35.417Z,0.82
2023-04-25T14:39:40.498Z,0.73
2023-04-25T14:42:44.460Z,0.85
2023-04-25T14:45:48.162Z,0.63
2023-04-25T14:48:51.979Z,1.02
2023-04-25T14:51:57.382Z,0.68
2023-04-25T14:55:06.154Z,1.40
2023-04-25T14:58:10.398Z,0.80
2023-04-25T15:01:14.989Z,0.77
2023-04-25T15:04:19.390Z,0.95
2023-04-25T15:07:25.011Z,1.00
2023-04-25T15:10:30.473Z,0.85
2023-04-25T15:13:35.849Z,1.08
2023-04-25T15:16:41.593Z,0.93
2023-04-25T15:19:45.700Z,0.60
2023-04-25T15:22:51.385Z,0.90
2023-04-25T15:25:54.889Z,1.00
2023-04-25T15:28:59.018Z,1.08
2023-04-25T15:32:02.811Z,1.00
2023-04-25T15:35:09.160Z,1.42
2023-04-25T15:38:21.565Z,1.23
2023-04-25T15:41:27.319Z,1.00
2023-04-25T15:44:31.686Z,1.08
2023-04-25T15:47:41.561Z,0.75
2023-04-25T15:50:50.395Z,0.60
2023-04-25T15:53:56.879Z,0.70
2023-04-25T15:57:04.965Z,0.95
2023-04-25T16:00:15.224Z,0.98
2023-04-25T16:03:19.241Z,0.80
2023-04-25T16:06:26.973Z,0.85
2023-04-25T16:09:35.368Z,0.73
2023-04-25T16:12:43.003Z,0.88
2023-04-25T16:15:49.432Z,0.82
2023-04-25T16:18:53.136Z,1.00
2023-04-25T16:21:57.395Z,1.02
2023-04-25T16:25:04.364Z,0.98
2023-04-25T16:28:10.344Z,0.98
2023-04-25T16:31:14.238Z,0.68
2023-04-25T16:34:20.487Z,0.70
2023-04-25T16:37:24.067Z,1.17
2023-04-25T16:40:29.621Z,0.70
2023-04-25T16:43:33.912Z,1.08
2023-04-25T16:46:37.744Z,0.95
2023-04-25T16:49:41.664Z,1.00
2023-04-25T16:52:51.261Z,0.77
2023-04-25T16:55:59.031Z,0.32
2023-04-25T16:59:02.940Z,1.00
2023-04-25T17:02:08.327Z,1.13
2023-04-25T17:05:12.297Z,0.80
2023-04-25T17:08:16.573Z,0.77
2023-04-25T17:11:21.837Z,0.60
2023-04-25T17:14:25.668Z,0.90
2023-04-25T17:17:29.452Z,0.82
2023-04-25T17:20:37.477Z,0.63
2023-04-25T17:23:45.554Z,0.90
2023-04-25T17:26:52.031Z,0.77
2023-04-25T17:30:00.366Z,1.02
2023-04-25T17:33:05.011Z,0.80
2023-04-25T17:36:09.084Z,0.73
2023-04-25T17:39:17.366Z,0.68
2023-04-25T17:42:32.889Z,1.00
2023-04-25T17:45:41.478Z,0.70
2023-04-25T17:48:52.510Z,0.70
2023-04-25T17:51:57.920Z,0.70
2023-04-25T17:55:03.438Z,0.90
2023-04-25T17:58:09.050Z,0.60
2023-04-25T18:01:17.611Z,1.08
2023-04-25T18:04:22.432Z,0.40
2023-04-25T18:07:26.643Z,0.50
2023-04-25T18:10:30.265Z,0.65
2023-04-25T18:13:40.751Z,0.70
2023-04-25T18:16:44.886Z,0.68
2023-04-25T18:19:51.251Z,0.70
2023-04-25T18:22:55.753Z,0.90
2023-04-25T18:26:00.748Z,1.05
2023-04-25T18:29:07.657Z,0.57
2023-04-25T18:32:12.342Z,0.55
2023-04-25T18:35:16.096Z,0.88
2023-04-25T18:38:31.733Z,0.95
2023-04-25T18:41:55.235Z,0.90
2023-04-25T18:45:05.668Z,0.80
2023-04-25T18:48:10.424Z,0.80
2023-04-25T18:51:15.321Z,0.90
2023-04-25T18:54:19.275Z,1.00
2023-04-25T18:57:23.606Z,0.73
2023-04-25T19:00:29.110Z,1.15
2023-04-25T19:03:38.300Z,0.82
2023-04-25T19:06:42.443Z,1.27
2023-04-25T19:09:46.102Z,1.15
2023-04-25T19:12:49.650Z,0.90
2023-04-25T19:15:58.850Z,0.70
2023-04-25T19:19:03.722Z,0.90
2023-04-25T19:22:09.671Z,1.40
2023-04-25T19:25:13.539Z,1.02
2023-04-25T19:28:17.720Z,0.82
2023-04-25T19:31:22.917Z,1.10
2023-04-25T19:34:27.178Z,1.10
2023-04-25T19:37:33.874Z,0.80
2023-04-25T19:40:38.277Z,0.98
2023-04-25T19:43:42.595Z,1.23
2023-04-25T19:46:51.144Z,0.75
2023-04-25T19:49:55.851Z,0.70
2023-04-25T19:53:00.031Z,0.85
2023-04-25T19:56:05.003Z,1.10
2023-04-25T19:59:09.680Z,0.98
2023-04-25T20:05:20.298Z,1.20
2023-04-25T20:08:26.015Z,0.90
2023-04-25T20:11:30.993Z,0.85
2023-04-25T20:14:34.742Z,0.90
2023-04-25T20:17:42.797Z,0.90
2023-04-25T20:20:47.618Z,1.17
2023-04-25T20:23:52.107Z,0.85
2023-04-25T20:26:57.215Z,1.30
2023-04-25T20:30:04.526Z,0.80
2023-04-25T20:33:09.985Z,1.40
2023-04-25T20:36:15.062Z,1.02
2023-04-25T20:39:18.718Z,1.10
2023-04-25T20:42:22.952Z,1.27
2023-04-25T20:45:30.207Z,0.90
2023-04-25T20:48:37.008Z,1.10
2023-04-25T20:51:42.500Z,0.90
2023-04-25T20:54:50.246Z,1.05
2023-04-25T20:57:54.232Z,0.95
2023-04-25T21:00:58.547Z,1.00
2023-04-25T21:04:04.230Z,0.88
2023-04-25T21:07:08.637Z,1.00
2023-04-25T21:10:17.424Z,0.93
2023-04-25T21:13:21.992Z,1.00
2023-04-25T21:16:25.921Z,0.90
2023-04-25T21:19:31.379Z,0.82
2023-04-25T21:22:47.620Z,0.73
2023-04-25T21:25:54.203Z,0.50
2023-04-25T21:28:58.210Z,1.20
2023-04-25T21:32:02.185Z,1.10
2023-04-25T21:35:08.786Z,1.00
2023-04-25T21:38:13.046Z,0.85
2023-04-25T21:41:18.578Z,0.90
2023-04-25T21:44:22.786Z,0.80
2023-04-25T21:47:26.892Z,1.00
2023-04-25T21:50:32.011Z,1.08
2023-04-25T21:53:36.774Z,0.90
2023-04-25T21:56:41.156Z,0.88
2023-04-25T21:59:44.856Z,0.65
2023-04-25T22:02:48.861Z,1.00
2023-04-25T22:05:53.977Z,1.00
2023-04-25T22:09:08.768Z,0.63
2023-04-25T22:12:14.986Z,0.93
2023-04-25T22:15:19.487Z,0.82
2023-04-25T22:18:23.434Z,0.98
2023-04-25T22:21:29.695Z,0.70
2023-04-25T22:24:34.018Z,1.00
2023-04-25T22:27:40.798Z,0.90
2023-04-25T22:30:44.866Z,0.68
2023-04-25T22:33:48.881Z,0.57
2023-04-25T22:36:54.827Z,0.70
2023-04-25T22:40:01.129Z,1.00
2023-04-25T22:43:05.371Z,0.60
2023-04-25T22:46:10.047Z,0.70
2023-04-25T22:49:14.531Z,1.25
2023-04-25T22:52:19.530Z,0.82
2023-04-25T22:55:23.359Z,0.80
2023-04-25T22:58:26.844Z,0.80
2023-04-25T23:01:31.415Z,1.10
2023-04-25T23:04:35.134Z,0.45
2023-04-25T23:07:44.980Z,0.68
2023-04-25T23:10:49.012Z,0.55
2023-04-25T23:13:52.849Z,0.65
2023-04-25T23:16:56.681Z,0.57
2023-04-25T23:20:01.307Z,0.70
2023-04-25T23:23:06.629Z,0.55
2023-04-25T23:26:10.504Z,0.50
2023-04-25T23:29:14.454Z,0.63
2023-04-25T23:32:18.520Z,0.57
2023-04-25T23:35:22.746Z,0.60
2023-04-25T23:38:29.783Z,0.82
2023-04-25T23:41:33.527Z,0.80
2023-04-25T23:44:37.429Z,0.93
2023-04-25T23:47:41.088Z,0.93
2023-04-25T23:50:44.759Z,0.98
2023-04-25T23:53:50.221Z,1.13
2023-04-25T23:56:54.040Z,1.65
2023-04-25T23:59:58.077Z,1.38
